sensor_id;sensor_type;location;lat;lon;timestamp;temperature;humidity
41838;DHT22;27511;52.042;5.178;2023-06-14T00:02:08;25.40;99.90
41838;DHT22;27511;52.042;5.178;2023-06-14T00:04:34;25.40;99.90
41838;DHT22;27511;52.042;5.178;2023-06-14T00:07:00;25.30;99.90
41838;DHT22;27511;52.042;5.178;2023-06-14T00:09:25;25.30;99.90
41838;DHT22;27511;52.042;5.178;2023-06-14T00:11:50;25.20;99.90
41838;DHT22;27511;52.042;5.178;2023-06-14T00:14:16;25.00;99.90
41838;DHT22;27511;52.042;5.178;2023-06-14T00:16:41;25.00;99.90
41838;DHT22;27511;52.042;5.178;2023-06-14T00:19:10;25.00;99.90
41838;DHT22;27511;52.042;5.178;2023-06-14T00:21:36;24.90;99.90
41838;DHT22;27511;52.042;5.178;2023-06-14T00:24:02;24.90;99.90
41838;DHT22;27511;52.042;5.178;2023-06-14T00:26:27;24.90;99.90
41838;DHT22;27511;52.042;5.178;2023-06-14T00:28:56;24.90;99.90
41838;DHT22;27511;52.042;5.178;2023-06-14T00:31:24;24.90;99.90
41838;DHT22;27511;52.042;5.178;2023-06-14T00:33:50;24.70;99.90
41838;DHT22;27511;52.042;5.178;2023-06-14T00:36:15;24.70;99.90
41838;DHT22;27511;52.042;5.178;2023-06-14T00:38:41;24.60;99.90
41838;DHT22;27511;52.042;5.178;2023-06-14T00:41:06;24.40;99.90
41838;DHT22;27511;52.042;5.178;2023-06-14T00:43:32;24.30;99.90
41838;DHT22;27511;52.042;5.178;2023-06-14T00:45:57;24.30;99.90
41838;DHT22;27511;52.042;5.178;2023-06-14T00:48:23;24.10;99.90
41838;DHT22;27511;52.042;5.178;2023-06-14T00:50:50;24.20;99.90
41838;DHT22;27511;52.042;5.178;2023-06-14T00:53:16;24.00;99.90
41838;DHT22;27511;52.042;5.178;2023-06-14T00:55:46;24.00;99.90
41838;DHT22;27511;52.042;5.178;2023-06-14T00:58:11;24.00;99.90
41838;DHT22;27511;52.042;5.178;2023-06-14T01:00:37;24.10;99.90
41838;DHT22;27511;52.042;5.178;2023-06-14T01:03:03;23.90;99.90
41838;DHT22;27511;52.042;5.178;2023-06-14T01:05:29;23.90;99.90
41838;DHT22;27511;52.042;5.178;2023-06-14T01:10:40;23.80;99.90
41838;DHT22;27511;52.042;5.178;2023-06-14T01:15:43;23.60;99.90
41838;DHT22;27511;52.042;5.178;2023-06-14T01:18:09;23.50;99.90
41838;DHT22;27511;52.042;5.178;2023-06-14T01:20:43;23.40;99.90
41838;DHT22;27511;52.042;5.178;2023-06-14T01:23:13;23.40;99.90
41838;DHT22;27511;52.042;5.178;2023-06-14T01:25:38;23.30;99.90
41838;DHT22;27511;52.042;5.178;2023-06-14T01:28:09;23.20;99.90
41838;DHT22;27511;52.042;5.178;2023-06-14T01:30:40;23.20;99.90
41838;DHT22;27511;52.042;5.178;2023-06-14T01:33:13;23.10;99.90
41838;DHT22;27511;52.042;5.178;2023-06-14T01:35:43;23.30;99.90
41838;DHT22;27511;52.042;5.178;2023-06-14T01:38:09;23.20;99.90
41838;DHT22;27511;52.042;5.178;2023-06-14T01:40:35;23.10;99.90
41838;DHT22;27511;52.042;5.178;2023-06-14T01:43:01;23.10;99.90
41838;DHT22;27511;52.042;5.178;2023-06-14T01:45:27;23.10;99.90
41838;DHT22;27511;52.042;5.178;2023-06-14T01:47:53;23.10;99.90
41838;DHT22;27511;52.042;5.178;2023-06-14T01:50:20;22.90;99.90
41838;DHT22;27511;52.042;5.178;2023-06-14T01:52:45;22.80;99.90
41838;DHT22;27511;52.042;5.178;2023-06-14T01:55:11;22.80;99.90
41838;DHT22;27511;52.042;5.178;2023-06-14T01:57:36;22.80;99.90
41838;DHT22;27511;52.042;5.178;2023-06-14T02:00:02;22.70;99.90
41838;DHT22;27511;52.042;5.178;2023-06-14T02:02:29;22.70;99.90
41838;DHT22;27511;52.042;5.178;2023-06-14T02:04:54;22.60;99.90
41838;DHT22;27511;52.042;5.178;2023-06-14T02:07:22;22.60;99.90
41838;DHT22;27511;52.042;5.178;2023-06-14T02:09:48;22.50;99.90
41838;DHT22;27511;52.042;5.178;2023-06-14T02:12:13;22.30;99.90
41838;DHT22;27511;52.042;5.178;2023-06-14T02:14:39;22.30;99.90
41838;DHT22;27511;52.042;5.178;2023-06-14T02:17:04;22.30;99.90
41838;DHT22;27511;52.042;5.178;2023-06-14T02:19:31;22.30;99.90
41838;DHT22;27511;52.042;5.178;2023-06-14T02:21:57;22.20;99.90
41838;DHT22;27511;52.042;5.178;2023-06-14T02:24:22;22.20;99.90
41838;DHT22;27511;52.042;5.178;2023-06-14T02:26:49;22.20;99.90
41838;DHT22;27511;52.042;5.178;2023-06-14T02:29:14;22.20;99.90
41838;DHT22;27511;52.042;5.178;2023-06-14T02:31:40;22.20;99.90
41838;DHT22;27511;52.042;5.178;2023-06-14T02:34:06;22.10;99.90
41838;DHT22;27511;52.042;5.178;2023-06-14T02:36:34;22.20;99.90
41838;DHT22;27511;52.042;5.178;2023-06-14T02:38:59;22.10;99.90
41838;DHT22;27511;52.042;5.178;2023-06-14T02:41:25;22.00;99.90
41838;DHT22;27511;52.042;5.178;2023-06-14T02:43:51;21.90;99.90
41838;DHT22;27511;52.042;5.178;2023-06-14T02:46:16;22.00;99.90
41838;DHT22;27511;52.042;5.178;2023-06-14T02:48:42;22.00;99.90
41838;DHT22;27511;52.042;5.178;2023-06-14T02:51:07;22.00;99.90
41838;DHT22;27511;52.042;5.178;2023-06-14T02:53:35;21.90;99.90
41838;DHT22;27511;52.042;5.178;2023-06-14T02:56:01;21.90;99.90
41838;DHT22;27511;52.042;5.178;2023-06-14T02:58:29;21.80;99.90
41838;DHT22;27511;52.042;5.178;2023-06-14T03:00:54;21.80;99.90
41838;DHT22;27511;52.042;5.178;2023-06-14T03:03:20;21.70;99.90
41838;DHT22;27511;52.042;5.178;2023-06-14T03:05:47;21.80;99.90
41838;DHT22;27511;52.042;5.178;2023-06-14T03:08:15;21.70;99.90
41838;DHT22;27511;52.042;5.178;2023-06-14T03:10:42;21.70;99.90
41838;DHT22;27511;52.042;5.178;2023-06-14T03:13:08;21.60;99.90
41838;DHT22;27511;52.042;5.178;2023-06-14T03:15:36;21.50;99.90
41838;DHT22;27511;52.042;5.178;2023-06-14T03:18:01;21.60;99.90
41838;DHT22;27511;52.042;5.178;2023-06-14T03:20:26;21.50;99.90
41838;DHT22;27511;52.042;5.178;2023-06-14T03:22:54;21.50;99.90
41838;DHT22;27511;52.042;5.178;2023-06-14T03:25:19;21.40;99.90
41838;DHT22;27511;52.042;5.178;2023-06-14T03:27:47;21.50;99.90
41838;DHT22;27511;52.042;5.178;2023-06-14T03:30:13;21.60;99.90
41838;DHT22;27511;52.042;5.178;2023-06-14T03:32:38;21.40;99.90
41838;DHT22;27511;52.042;5.178;2023-06-14T03:35:04;21.30;99.90
41838;DHT22;27511;52.042;5.178;2023-06-14T03:37:30;21.30;99.90
41838;DHT22;27511;52.042;5.178;2023-06-14T03:39:55;21.20;99.90
41838;DHT22;27511;52.042;5.178;2023-06-14T03:42:21;21.30;99.90
41838;DHT22;27511;52.042;5.178;2023-06-14T03:44:46;21.30;99.90
41838;DHT22;27511;52.042;5.178;2023-06-14T03:47:12;21.40;99.90
41838;DHT22;27511;52.042;5.178;2023-06-14T03:49:37;21.40;99.90
41838;DHT22;27511;52.042;5.178;2023-06-14T03:52:03;21.40;99.90
41838;DHT22;27511;52.042;5.178;2023-06-14T03:54:29;21.40;99.90
41838;DHT22;27511;52.042;5.178;2023-06-14T03:56:54;21.40;99.90
41838;DHT22;27511;52.042;5.178;2023-06-14T03:59:22;21.30;99.90
41838;DHT22;27511;52.042;5.178;2023-06-14T04:01:47;21.40;99.90
41838;DHT22;27511;52.042;5.178;2023-06-14T04:04:14;21.40;99.90
41838;DHT22;27511;52.042;5.178;2023-06-14T04:06:41;21.40;99.90
41838;DHT22;27511;52.042;5.178;2023-06-14T04:09:08;21.30;99.90
41838;DHT22;27511;52.042;5.178;2023-06-14T04:11:34;21.40;99.90
41838;DHT22;27511;52.042;5.178;2023-06-14T04:13:59;21.40;99.90
41838;DHT22;27511;52.042;5.178;2023-06-14T04:16:25;21.40;99.90
41838;DHT22;27511;52.042;5.178;2023-06-14T04:18:50;21.20;99.90
41838;DHT22;27511;52.042;5.178;2023-06-14T04:21:18;21.20;99.90
41838;DHT22;27511;52.042;5.178;2023-06-14T04:23:43;21.20;99.90
41838;DHT22;27511;52.042;5.178;2023-06-14T04:26:09;21.30;99.90
41838;DHT22;27511;52.042;5.178;2023-06-14T04:28:35;21.40;99.90
41838;DHT22;27511;52.042;5.178;2023-06-14T04:31:08;21.60;99.90
41838;DHT22;27511;52.042;5.178;2023-06-14T04:33:37;21.50;99.90
41838;DHT22;27511;52.042;5.178;2023-06-14T04:36:12;21.60;99.90
41838;DHT22;27511;52.042;5.178;2023-06-14T04:38:38;21.60;99.90
41838;DHT22;27511;52.042;5.178;2023-06-14T04:41:04;21.60;99.90
41838;DHT22;27511;52.042;5.178;2023-06-14T04:43:30;21.50;99.90
41838;DHT22;27511;52.042;5.178;2023-06-14T04:45:57;21.60;99.90
41838;DHT22;27511;52.042;5.178;2023-06-14T04:48:22;21.60;99.90
41838;DHT22;27511;52.042;5.178;2023-06-14T04:50:48;21.50;99.90
41838;DHT22;27511;52.042;5.178;2023-06-14T04:53:13;21.50;99.90
41838;DHT22;27511;52.042;5.178;2023-06-14T04:55:39;21.60;99.90
41838;DHT22;27511;52.042;5.178;2023-06-14T04:58:05;21.40;99.90
41838;DHT22;27511;52.042;5.178;2023-06-14T05:00:30;21.50;99.90
41838;DHT22;27511;52.042;5.178;2023-06-14T05:02:56;21.60;99.90
41838;DHT22;27511;52.042;5.178;2023-06-14T05:05:22;21.60;99.90
41838;DHT22;27511;52.042;5.178;2023-06-14T05:07:47;21.60;99.90
41838;DHT22;27511;52.042;5.178;2023-06-14T05:10:13;21.70;99.90
41838;DHT22;27511;52.042;5.178;2023-06-14T05:12:38;21.70;99.90
41838;DHT22;27511;52.042;5.178;2023-06-14T05:15:04;21.80;99.90
41838;DHT22;27511;52.042;5.178;2023-06-14T05:17:30;21.90;99.90
41838;DHT22;27511;52.042;5.178;2023-06-14T05:19:55;22.00;99.90
41838;DHT22;27511;52.042;5.178;2023-06-14T05:22:21;22.00;99.90
41838;DHT22;27511;52.042;5.178;2023-06-14T05:24:46;21.90;99.90
41838;DHT22;27511;52.042;5.178;2023-06-14T05:27:13;22.10;99.90
41838;DHT22;27511;52.042;5.178;2023-06-14T05:29:39;21.80;99.90
41838;DHT22;27511;52.042;5.178;2023-06-14T05:32:07;22.00;99.90
41838;DHT22;27511;52.042;5.178;2023-06-14T05:34:32;22.00;99.90
41838;DHT22;27511;52.042;5.178;2023-06-14T05:36:58;22.00;99.90
41838;DHT22;27511;52.042;5.178;2023-06-14T05:39:24;22.00;99.90
41838;DHT22;27511;52.042;5.178;2023-06-14T05:41:49;22.00;99.90
41838;DHT22;27511;52.042;5.178;2023-06-14T05:44:15;22.00;99.90
41838;DHT22;27511;52.042;5.178;2023-06-14T05:46:40;22.00;99.90
41838;DHT22;27511;52.042;5.178;2023-06-14T05:49:06;22.00;99.90
41838;DHT22;27511;52.042;5.178;2023-06-14T05:51:31;22.20;99.90
41838;DHT22;27511;52.042;5.178;2023-06-14T05:53:57;22.10;99.90
41838;DHT22;27511;52.042;5.178;2023-06-14T05:56:22;22.10;99.90
41838;DHT22;27511;52.042;5.178;2023-06-14T05:58:48;22.00;99.90
41838;DHT22;27511;52.042;5.178;2023-06-14T06:01:14;22.10;99.90
41838;DHT22;27511;52.042;5.178;2023-06-14T06:03:41;22.10;99.90
41838;DHT22;27511;52.042;5.178;2023-06-14T06:06:06;22.10;99.90
41838;DHT22;27511;52.042;5.178;2023-06-14T06:08:33;22.20;99.90
41838;DHT22;27511;52.042;5.178;2023-06-14T06:10:58;22.20;99.90
41838;DHT22;27511;52.042;5.178;2023-06-14T06:13:25;22.30;99.90
41838;DHT22;27511;52.042;5.178;2023-06-14T06:15:51;22.40;99.90
41838;DHT22;27511;52.042;5.178;2023-06-14T06:18:16;22.40;99.90
41838;DHT22;27511;52.042;5.178;2023-06-14T06:20:42;22.50;99.90
41838;DHT22;27511;52.042;5.178;2023-06-14T06:23:09;22.40;99.90
41838;DHT22;27511;52.042;5.178;2023-06-14T06:25:35;22.50;99.90
41838;DHT22;27511;52.042;5.178;2023-06-14T06:28:00;22.50;99.90
41838;DHT22;27511;52.042;5.178;2023-06-14T06:30:26;22.60;99.90
41838;DHT22;27511;52.042;5.178;2023-06-14T06:32:52;22.60;99.90
41838;DHT22;27511;52.042;5.178;2023-06-14T06:35:18;22.50;99.90
41838;DHT22;27511;52.042;5.178;2023-06-14T06:37:44;22.60;99.90
41838;DHT22;27511;52.042;5.178;2023-06-14T06:40:09;22.50;99.90
41838;DHT22;27511;52.042;5.178;2023-06-14T06:42:35;22.60;99.90
41838;DHT22;27511;52.042;5.178;2023-06-14T06:45:01;22.70;99.90
41838;DHT22;27511;52.042;5.178;2023-06-14T06:47:27;22.70;99.90
41838;DHT22;27511;52.042;5.178;2023-06-14T06:49:52;22.90;99.90
41838;DHT22;27511;52.042;5.178;2023-06-14T06:52:18;22.80;99.90
41838;DHT22;27511;52.042;5.178;2023-06-14T06:54:43;22.90;99.90
41838;DHT22;27511;52.042;5.178;2023-06-14T06:57:09;22.90;99.90
41838;DHT22;27511;52.042;5.178;2023-06-14T06:59:36;22.90;99.90
41838;DHT22;27511;52.042;5.178;2023-06-14T07:02:02;23.00;99.90
41838;DHT22;27511;52.042;5.178;2023-06-14T07:04:27;23.10;99.90
41838;DHT22;27511;52.042;5.178;2023-06-14T07:06:52;23.10;99.90
41838;DHT22;27511;52.042;5.178;2023-06-14T07:09:18;23.20;99.90
41838;DHT22;27511;52.042;5.178;2023-06-14T07:11:45;23.40;99.90
41838;DHT22;27511;52.042;5.178;2023-06-14T07:14:10;23.40;99.90
41838;DHT22;27511;52.042;5.178;2023-06-14T07:16:36;23.40;99.90
41838;DHT22;27511;52.042;5.178;2023-06-14T07:19:02;23.50;99.90
41838;DHT22;27511;52.042;5.178;2023-06-14T07:21:27;23.50;99.90
41838;DHT22;27511;52.042;5.178;2023-06-14T07:23:53;23.60;99.90
41838;DHT22;27511;52.042;5.178;2023-06-14T07:26:19;23.60;99.90
41838;DHT22;27511;52.042;5.178;2023-06-14T07:28:45;23.70;99.90
41838;DHT22;27511;52.042;5.178;2023-06-14T07:31:11;23.70;99.90
41838;DHT22;27511;52.042;5.178;2023-06-14T07:33:38;23.70;99.90
41838;DHT22;27511;52.042;5.178;2023-06-14T07:36:03;23.80;99.90
41838;DHT22;27511;52.042;5.178;2023-06-14T07:38:29;23.90;99.90
41838;DHT22;27511;52.042;5.178;2023-06-14T07:40:54;24.00;99.90
41838;DHT22;27511;52.042;5.178;2023-06-14T07:43:20;24.10;99.90
41838;DHT22;27511;52.042;5.178;2023-06-14T07:45:45;24.20;99.90
41838;DHT22;27511;52.042;5.178;2023-06-14T07:48:11;24.20;99.90
41838;DHT22;27511;52.042;5.178;2023-06-14T07:50:36;24.20;99.90
41838;DHT22;27511;52.042;5.178;2023-06-14T07:53:02;24.20;99.90
41838;DHT22;27511;52.042;5.178;2023-06-14T07:55:27;24.40;99.90
41838;DHT22;27511;52.042;5.178;2023-06-14T07:57:53;24.40;99.90
41838;DHT22;27511;52.042;5.178;2023-06-14T08:00:19;24.50;99.90
41838;DHT22;27511;52.042;5.178;2023-06-14T08:02:45;24.60;99.90
41838;DHT22;27511;52.042;5.178;2023-06-14T08:05:11;24.60;99.90
41838;DHT22;27511;52.042;5.178;2023-06-14T08:07:37;24.70;99.90
41838;DHT22;27511;52.042;5.178;2023-06-14T08:10:03;24.70;99.90
41838;DHT22;27511;52.042;5.178;2023-06-14T08:12:28;24.70;99.90
41838;DHT22;27511;52.042;5.178;2023-06-14T08:14:54;24.90;99.90
41838;DHT22;27511;52.042;5.178;2023-06-14T08:17:19;25.00;99.90
41838;DHT22;27511;52.042;5.178;2023-06-14T08:19:45;25.00;99.90
41838;DHT22;27511;52.042;5.178;2023-06-14T08:22:10;25.10;99.90
41838;DHT22;27511;52.042;5.178;2023-06-14T08:24:37;25.10;99.90
41838;DHT22;27511;52.042;5.178;2023-06-14T08:27:03;25.20;99.90
41838;DHT22;27511;52.042;5.178;2023-06-14T08:29:28;25.30;99.90
41838;DHT22;27511;52.042;5.178;2023-06-14T08:31:55;25.30;99.90
41838;DHT22;27511;52.042;5.178;2023-06-14T08:34:21;25.30;99.90
41838;DHT22;27511;52.042;5.178;2023-06-14T08:36:51;25.50;99.90
41838;DHT22;27511;52.042;5.178;2023-06-14T08:39:17;25.50;99.90
41838;DHT22;27511;52.042;5.178;2023-06-14T08:41:43;25.50;99.90
41838;DHT22;27511;52.042;5.178;2023-06-14T08:44:10;25.60;99.90
41838;DHT22;27511;52.042;5.178;2023-06-14T08:46:35;25.70;99.90
41838;DHT22;27511;52.042;5.178;2023-06-14T08:49:02;25.80;99.90
41838;DHT22;27511;52.042;5.178;2023-06-14T08:51:27;25.80;99.90
41838;DHT22;27511;52.042;5.178;2023-06-14T08:53:59;25.80;99.90
41838;DHT22;27511;52.042;5.178;2023-06-14T08:56:27;25.90;99.90
41838;DHT22;27511;52.042;5.178;2023-06-14T08:58:53;25.90;99.90
41838;DHT22;27511;52.042;5.178;2023-06-14T09:01:18;26.00;99.90
41838;DHT22;27511;52.042;5.178;2023-06-14T09:03:47;26.10;99.90
41838;DHT22;27511;52.042;5.178;2023-06-14T09:06:13;26.10;99.90
41838;DHT22;27511;52.042;5.178;2023-06-14T09:08:42;26.10;99.90
41838;DHT22;27511;52.042;5.178;2023-06-14T09:11:12;26.10;99.90
41838;DHT22;27511;52.042;5.178;2023-06-14T09:13:38;26.10;99.90
41838;DHT22;27511;52.042;5.178;2023-06-14T09:16:04;26.20;99.90
41838;DHT22;27511;52.042;5.178;2023-06-14T09:18:40;26.20;99.90
41838;DHT22;27511;52.042;5.178;2023-06-14T09:21:10;26.30;99.90
41838;DHT22;27511;52.042;5.178;2023-06-14T09:23:42;26.30;99.90
41838;DHT22;27511;52.042;5.178;2023-06-14T09:26:12;26.30;99.90
41838;DHT22;27511;52.042;5.178;2023-06-14T09:28:41;26.30;99.90
41838;DHT22;27511;52.042;5.178;2023-06-14T09:31:07;26.40;99.90
41838;DHT22;27511;52.042;5.178;2023-06-14T09:33:34;26.50;99.90
41838;DHT22;27511;52.042;5.178;2023-06-14T09:35:59;26.50;99.90
41838;DHT22;27511;52.042;5.178;2023-06-14T09:38:25;26.50;99.90
41838;DHT22;27511;52.042;5.178;2023-06-14T09:40:51;26.60;99.90
41838;DHT22;27511;52.042;5.178;2023-06-14T09:43:16;26.70;99.90
41838;DHT22;27511;52.042;5.178;2023-06-14T09:45:43;26.70;99.90
41838;DHT22;27511;52.042;5.178;2023-06-14T09:48:11;26.80;99.90
41838;DHT22;27511;52.042;5.178;2023-06-14T09:50:36;26.90;99.90
41838;DHT22;27511;52.042;5.178;2023-06-14T09:53:03;27.00;99.90
41838;DHT22;27511;52.042;5.178;2023-06-14T09:55:30;27.00;99.90
41838;DHT22;27511;52.042;5.178;2023-06-14T09:57:58;27.20;99.90
41838;DHT22;27511;52.042;5.178;2023-06-14T10:00:24;27.10;99.90
41838;DHT22;27511;52.042;5.178;2023-06-14T10:02:53;27.20;99.90
41838;DHT22;27511;52.042;5.178;2023-06-14T10:05:21;27.10;99.90
41838;DHT22;27511;52.042;5.178;2023-06-14T10:07:48;27.20;99.90
41838;DHT22;27511;52.042;5.178;2023-06-14T10:10:16;27.30;99.90
41838;DHT22;27511;52.042;5.178;2023-06-14T10:12:42;27.40;99.90
41838;DHT22;27511;52.042;5.178;2023-06-14T10:15:12;27.50;99.90
41838;DHT22;27511;52.042;5.178;2023-06-14T10:17:46;27.50;99.90
41838;DHT22;27511;52.042;5.178;2023-06-14T10:22:51;27.60;99.90
41838;DHT22;27511;52.042;5.178;2023-06-14T10:25:29;27.60;99.90
41838;DHT22;27511;52.042;5.178;2023-06-14T10:28:02;27.70;99.90
41838;DHT22;27511;52.042;5.178;2023-06-14T10:30:28;27.70;99.90
41838;DHT22;27511;52.042;5.178;2023-06-14T10:33:06;27.70;99.90
41838;DHT22;27511;52.042;5.178;2023-06-14T10:35:32;27.70;99.90
41838;DHT22;27511;52.042;5.178;2023-06-14T10:38:11;27.70;99.90
41838;DHT22;27511;52.042;5.178;2023-06-14T10:40:37;27.80;99.90
41838;DHT22;27511;52.042;5.178;2023-06-14T10:43:22;27.80;99.90
41838;DHT22;27511;52.042;5.178;2023-06-14T10:48:32;27.90;99.90
41838;DHT22;27511;52.042;5.178;2023-06-14T10:51:02;28.00;99.90
41838;DHT22;27511;52.042;5.178;2023-06-14T10:53:27;28.00;99.90
41838;DHT22;27511;52.042;5.178;2023-06-14T10:55:54;28.10;99.90
41838;DHT22;27511;52.042;5.178;2023-06-14T10:58:21;28.20;99.90
41838;DHT22;27511;52.042;5.178;2023-06-14T11:00:46;28.20;99.90
41838;DHT22;27511;52.042;5.178;2023-06-14T11:10:49;28.40;99.90
41838;DHT22;27511;52.042;5.178;2023-06-14T11:13:16;28.40;99.90
41838;DHT22;27511;52.042;5.178;2023-06-14T11:15:45;28.40;99.90
41838;DHT22;27511;52.042;5.178;2023-06-14T11:18:12;28.40;99.90
41838;DHT22;27511;52.042;5.178;2023-06-14T11:20:39;28.50;99.90
41838;DHT22;27511;52.042;5.178;2023-06-14T11:23:05;28.40;99.90
41838;DHT22;27511;52.042;5.178;2023-06-14T11:25:30;28.50;99.90
41838;DHT22;27511;52.042;5.178;2023-06-14T11:27:56;28.60;99.90
41838;DHT22;27511;52.042;5.178;2023-06-14T11:30:22;28.60;99.90
41838;DHT22;27511;52.042;5.178;2023-06-14T11:32:48;28.70;99.90
41838;DHT22;27511;52.042;5.178;2023-06-14T11:35:16;28.70;99.90
41838;DHT22;27511;52.042;5.178;2023-06-14T11:37:41;28.80;99.90
41838;DHT22;27511;52.042;5.178;2023-06-14T11:40:08;28.90;99.90
41838;DHT22;27511;52.042;5.178;2023-06-14T11:42:35;28.90;99.90
41838;DHT22;27511;52.042;5.178;2023-06-14T11:45:01;29.10;99.90
41838;DHT22;27511;52.042;5.178;2023-06-14T11:47:34;28.80;99.90
41838;DHT22;27511;52.042;5.178;2023-06-14T11:50:01;28.90;99.90
41838;DHT22;27511;52.042;5.178;2023-06-14T11:52:26;29.00;99.90
41838;DHT22;27511;52.042;5.178;2023-06-14T11:54:52;29.00;99.90
41838;DHT22;27511;52.042;5.178;2023-06-14T11:57:18;29.00;99.90
41838;DHT22;27511;52.042;5.178;2023-06-14T11:59:44;29.10;99.90
41838;DHT22;27511;52.042;5.178;2023-06-14T12:02:10;29.10;99.90
41838;DHT22;27511;52.042;5.178;2023-06-14T12:04:40;29.30;99.90
41838;DHT22;27511;52.042;5.178;2023-06-14T12:07:09;29.40;99.90
41838;DHT22;27511;52.042;5.178;2023-06-14T12:09:37;29.40;99.90
41838;DHT22;27511;52.042;5.178;2023-06-14T12:12:03;29.40;99.90
41838;DHT22;27511;52.042;5.178;2023-06-14T12:14:29;29.40;99.90
41838;DHT22;27511;52.042;5.178;2023-06-14T12:17:03;29.50;99.90
41838;DHT22;27511;52.042;5.178;2023-06-14T12:19:29;29.50;99.90
41838;DHT22;27511;52.042;5.178;2023-06-14T12:21:54;29.70;99.90
41838;DHT22;27511;52.042;5.178;2023-06-14T12:24:21;29.70;99.90
41838;DHT22;27511;52.042;5.178;2023-06-14T12:26:46;29.80;99.90
41838;DHT22;27511;52.042;5.178;2023-06-14T12:29:12;29.80;99.90
41838;DHT22;27511;52.042;5.178;2023-06-14T12:31:38;29.90;99.90
41838;DHT22;27511;52.042;5.178;2023-06-14T12:34:03;29.80;99.90
41838;DHT22;27511;52.042;5.178;2023-06-14T12:36:28;29.90;99.90
41838;DHT22;27511;52.042;5.178;2023-06-14T12:38:54;30.20;99.90
41838;DHT22;27511;52.042;5.178;2023-06-14T12:41:20;30.20;99.90
41838;DHT22;27511;52.042;5.178;2023-06-14T12:43:47;30.20;99.90
41838;DHT22;27511;52.042;5.178;2023-06-14T12:46:13;30.30;99.90
41838;DHT22;27511;52.042;5.178;2023-06-14T12:48:38;30.30;99.90
41838;DHT22;27511;52.042;5.178;2023-06-14T12:51:03;30.20;99.90
41838;DHT22;27511;52.042;5.178;2023-06-14T12:53:29;30.30;99.90
41838;DHT22;27511;52.042;5.178;2023-06-14T12:55:54;30.50;99.90
41838;DHT22;27511;52.042;5.178;2023-06-14T12:58:20;30.40;99.90
41838;DHT22;27511;52.042;5.178;2023-06-14T13:00:46;30.50;99.90
41838;DHT22;27511;52.042;5.178;2023-06-14T13:03:11;30.60;99.90
41838;DHT22;27511;52.042;5.178;2023-06-14T13:05:37;30.60;99.90
41838;DHT22;27511;52.042;5.178;2023-06-14T13:08:06;30.70;99.90
41838;DHT22;27511;52.042;5.178;2023-06-14T13:10:31;30.70;99.90
41838;DHT22;27511;52.042;5.178;2023-06-14T13:12:57;30.80;99.90
41838;DHT22;27511;52.042;5.178;2023-06-14T13:15:25;30.80;99.90
41838;DHT22;27511;52.042;5.178;2023-06-14T13:17:51;30.90;99.90
41838;DHT22;27511;52.042;5.178;2023-06-14T13:20:16;31.00;99.90
41838;DHT22;27511;52.042;5.178;2023-06-14T13:22:42;31.00;99.90
41838;DHT22;27511;52.042;5.178;2023-06-14T13:25:07;31.10;99.90
41838;DHT22;27511;52.042;5.178;2023-06-14T13:27:33;31.00;99.90
41838;DHT22;27511;52.042;5.178;2023-06-14T13:29:58;31.10;99.90
41838;DHT22;27511;52.042;5.178;2023-06-14T13:32:24;31.10;99.90
41838;DHT22;27511;52.042;5.178;2023-06-14T13:34:49;31.30;99.90
41838;DHT22;27511;52.042;5.178;2023-06-14T13:37:15;31.40;99.90
41838;DHT22;27511;52.042;5.178;2023-06-14T13:39:40;31.40;99.90
41838;DHT22;27511;52.042;5.178;2023-06-14T13:42:06;31.40;99.90
41838;DHT22;27511;52.042;5.178;2023-06-14T13:44:31;31.30;99.90
41838;DHT22;27511;52.042;5.178;2023-06-14T13:46:57;31.40;99.90
41838;DHT22;27511;52.042;5.178;2023-06-14T13:49:22;31.40;99.90
41838;DHT22;27511;52.042;5.178;2023-06-14T13:51:48;31.50;99.90
41838;DHT22;27511;52.042;5.178;2023-06-14T13:54:14;31.70;99.90
41838;DHT22;27511;52.042;5.178;2023-06-14T13:56:42;31.70;99.90
41838;DHT22;27511;52.042;5.178;2023-06-14T13:59:07;31.80;99.90
41838;DHT22;27511;52.042;5.178;2023-06-14T14:01:33;31.80;99.90
41838;DHT22;27511;52.042;5.178;2023-06-14T14:03:59;31.90;99.90
41838;DHT22;27511;52.042;5.178;2023-06-14T14:06:26;31.90;99.90
41838;DHT22;27511;52.042;5.178;2023-06-14T14:08:51;31.90;99.90
41838;DHT22;27511;52.042;5.178;2023-06-14T14:11:18;31.90;99.90
41838;DHT22;27511;52.042;5.178;2023-06-14T14:13:44;31.90;99.90
41838;DHT22;27511;52.042;5.178;2023-06-14T14:16:10;31.80;99.90
41838;DHT22;27511;52.042;5.178;2023-06-14T14:18:35;31.80;99.90
41838;DHT22;27511;52.042;5.178;2023-06-14T14:21:02;31.90;99.90
41838;DHT22;27511;52.042;5.178;2023-06-14T14:23:27;31.90;99.90
41838;DHT22;27511;52.042;5.178;2023-06-14T14:25:53;32.00;99.90
41838;DHT22;27511;52.042;5.178;2023-06-14T14:28:18;31.90;99.90
41838;DHT22;27511;52.042;5.178;2023-06-14T14:30:46;32.00;99.90
41838;DHT22;27511;52.042;5.178;2023-06-14T14:33:13;32.10;99.90
41838;DHT22;27511;52.042;5.178;2023-06-14T14:35:41;32.00;99.90
41838;DHT22;27511;52.042;5.178;2023-06-14T14:38:07;31.90;99.90
41838;DHT22;27511;52.042;5.178;2023-06-14T14:40:33;32.00;99.90
41838;DHT22;27511;52.042;5.178;2023-06-14T14:42:58;32.10;99.90
41838;DHT22;27511;52.042;5.178;2023-06-14T14:45:24;32.10;99.90
41838;DHT22;27511;52.042;5.178;2023-06-14T14:47:49;32.10;99.90
41838;DHT22;27511;52.042;5.178;2023-06-14T14:50:15;32.10;99.90
41838;DHT22;27511;52.042;5.178;2023-06-14T14:52:41;32.10;99.90
41838;DHT22;27511;52.042;5.178;2023-06-14T14:55:07;32.10;99.90
41838;DHT22;27511;52.042;5.178;2023-06-14T14:57:32;32.20;99.90
41838;DHT22;27511;52.042;5.178;2023-06-14T14:59:58;32.30;99.90
41838;DHT22;27511;52.042;5.178;2023-06-14T15:02:23;32.30;99.90
41838;DHT22;27511;52.042;5.178;2023-06-14T15:04:49;32.40;99.90
41838;DHT22;27511;52.042;5.178;2023-06-14T15:07:14;32.50;99.90
41838;DHT22;27511;52.042;5.178;2023-06-14T15:09:40;32.50;99.90
41838;DHT22;27511;52.042;5.178;2023-06-14T15:12:06;32.50;99.90
41838;DHT22;27511;52.042;5.178;2023-06-14T15:14:32;32.50;99.90
41838;DHT22;27511;52.042;5.178;2023-06-14T15:16:58;32.50;99.90
41838;DHT22;27511;52.042;5.178;2023-06-14T15:19:23;32.50;99.90
41838;DHT22;27511;52.042;5.178;2023-06-14T15:21:49;32.60;99.90
41838;DHT22;27511;52.042;5.178;2023-06-14T15:24:14;32.70;99.90
41838;DHT22;27511;52.042;5.178;2023-06-14T15:26:40;32.90;99.90
41838;DHT22;27511;52.042;5.178;2023-06-14T15:29:05;33.50;99.90
41838;DHT22;27511;52.042;5.178;2023-06-14T15:31:31;34.40;99.90
41838;DHT22;27511;52.042;5.178;2023-06-14T15:33:56;35.50;99.90
41838;DHT22;27511;52.042;5.178;2023-06-14T15:36:22;36.80;99.90
41838;DHT22;27511;52.042;5.178;2023-06-14T15:38:47;38.20;99.90
41838;DHT22;27511;52.042;5.178;2023-06-14T15:41:13;39.00;99.90
41838;DHT22;27511;52.042;5.178;2023-06-14T15:43:38;39.80;99.90